createdAt,value
2023-02-06T00:00:53.086Z,144212.72
2023-02-06T00:03:20.381Z,144188.53
2023-02-06T00:05:57.703Z,144246.56
2023-02-06T00:08:25.994Z,144147.44
2023-02-06T00:10:53.231Z,144234.50
2023-02-06T00:13:20.808Z,144224.84
2023-02-06T00:15:48.138Z,144251.47
2023-02-06T00:18:15.170Z,143905.63
2023-02-06T00:20:42.286Z,144021.66
2023-02-06T00:23:09.944Z,144171.59
2023-02-06T00:25:37.441Z,144198.22
2023-02-06T00:28:04.929Z,144217.56
2023-02-06T00:30:32.062Z,144241.72
2023-02-06T00:32:59.245Z,144145.00
2023-02-06T00:35:26.658Z,144205.44
2023-02-06T00:37:53.838Z,144099.03
2023-02-06T00:40:20.988Z,144065.16
2023-02-06T00:42:48.010Z,144201.84
2023-02-06T00:45:15.152Z,144186.09
2023-02-06T00:47:42.201Z,144057.94
2023-02-06T00:50:10.089Z,144093.00
2023-02-06T00:52:37.116Z,144148.63
2023-02-06T00:55:05.618Z,144028.91
2023-02-06T00:57:32.609Z,144018.03
2023-02-06T00:59:59.668Z,144120.81
2023-02-06T01:02:27.026Z,144178.88
2023-02-06T01:04:54.033Z,143951.53
2023-02-06T01:07:21.073Z,144164.31
2023-02-06T01:09:48.114Z,144053.09
2023-02-06T01:12:15.130Z,144147.44
2023-02-06T01:14:42.413Z,143876.63
2023-02-06T01:17:11.872Z,144083.28
2023-02-06T01:19:39.432Z,144200.63
2023-02-06T01:22:07.410Z,144148.63
2023-02-06T01:24:34.479Z,144135.31
2023-02-06T01:27:01.530Z,143975.75
2023-02-06T01:29:28.608Z,144163.13
2023-02-06T01:31:56.341Z,144134.13
2023-02-06T01:34:23.384Z,144117.19
2023-02-06T01:36:50.380Z,143912.88
2023-02-06T01:39:17.396Z,144101.44
2023-02-06T01:41:45.470Z,144111.16
2023-02-06T01:44:24.094Z,144060.34
2023-02-06T01:46:56.121Z,144038.59
2023-02-06T01:49:37.880Z,143934.66
2023-02-06T01:52:09.317Z,143979.38
2023-02-06T01:54:36.514Z,144043.44
2023-02-06T01:57:09.031Z,143701.47
2023-02-06T01:59:36.476Z,143996.25
2023-02-06T02:02:04.279Z,143759.44
2023-02-06T02:04:33.095Z,143975.75
2023-02-06T02:07:22.784Z,143958.81
2023-02-06T02:09:49.852Z,143995.06
2023-02-06T02:12:17.014Z,143773.94
2023-02-06T02:14:46.385Z,143935.84
2023-02-06T02:17:38.174Z,143926.19
2023-02-06T02:20:53.508Z,143916.53
2023-02-06T02:23:26.606Z,143881.47
2023-02-06T02:26:25.043Z,143705.09
2023-02-06T02:29:13.353Z,143806.53
2023-02-06T02:32:03.214Z,143782.41
2023-02-06T02:35:01.582Z,143691.81
2023-02-06T02:37:34.553Z,143741.34
2023-02-06T02:40:30.969Z,143718.38
2023-02-06T02:43:19.700Z,143695.44
2023-02-06T02:46:22.356Z,143659.22
2023-02-06T02:48:53.077Z,143636.28
2023-02-06T02:51:20.320Z,143556.59
2023-02-06T02:53:47.469Z,143421.44
2023-02-06T02:56:19.329Z,143584.34
2023-02-06T02:58:53.369Z,143429.88
2023-02-06T03:01:27.610Z,143585.59
2023-02-06T03:03:58.199Z,143533.66
2023-02-06T03:06:31.394Z,143596.44
2023-02-06T03:09:11.034Z,143594.00
2023-02-06T03:11:45.296Z,143572.31
2023-02-06T03:14:27.892Z,143490.25
2023-02-06T03:16:59.514Z,143594.00
2023-02-06T03:19:33.382Z,143446.78
2023-02-06T03:22:02.479Z,143584.34
2023-02-06T03:24:34.824Z,143583.16
2023-02-06T03:27:06.737Z,143584.34
2023-02-06T03:29:37.396Z,143429.88
2023-02-06T03:32:12.484Z,143613.34
2023-02-06T03:34:55.865Z,143601.25
2023-02-06T03:37:24.441Z,143404.56
2023-02-06T03:39:51.568Z,143592.81
2023-02-06T03:42:21.620Z,143292.41
2023-02-06T03:44:57.377Z,143544.56
2023-02-06T03:47:26.245Z,143490.25
2023-02-06T03:49:56.730Z,143388.88
2023-02-06T03:52:28.487Z,143277.94
2023-02-06T03:55:02.343Z,143490.25
2023-02-06T03:57:31.860Z,143463.69
2023-02-06T03:59:59.025Z,143444.34
2023-02-06T04:02:26.663Z,143265.84
2023-02-06T04:04:53.800Z,143369.59
2023-02-06T04:07:25.400Z,143398.50
2023-02-06T04:09:53.344Z,143369.59
2023-02-06T04:12:22.050Z,143374.41
2023-02-06T04:14:49.184Z,143311.69
2023-02-06T04:17:28.163Z,143302.03
2023-02-06T04:20:04.852Z,143322.50
2023-02-06T04:22:32.102Z,143318.94
2023-02-06T04:24:59.208Z,143304.41
2023-02-06T04:27:26.352Z,143087.47
2023-02-06T04:29:53.469Z,143294.78
2023-02-06T04:32:20.472Z,143292.41
2023-02-06T04:34:47.607Z,143154.91
2023-02-06T04:37:14.645Z,143282.75
2023-02-06T04:39:41.895Z,143273.09
2023-02-06T04:42:08.961Z,143029.63
2023-02-06T04:44:38.353Z,143253.78
2023-02-06T04:47:05.746Z,143224.88
2023-02-06T04:49:32.995Z,143279.13
2023-02-06T04:52:00.049Z,143159.78
2023-02-06T04:54:27.122Z,143236.94
2023-02-06T04:56:54.209Z,142959.72
2023-02-06T04:59:21.399Z,143282.75
2023-02-06T05:01:48.591Z,143248.97
2023-02-06T05:04:15.933Z,143287.56
2023-02-06T05:06:43.019Z,143289.97
2023-02-06T05:09:10.325Z,143287.56
2023-02-06T05:11:37.379Z,143277.94
2023-02-06T05:14:04.404Z,143277.94
2023-02-06T05:16:31.417Z,143255.03
2023-02-06T05:18:58.451Z,143233.31
2023-02-06T05:21:26.201Z,143233.31
2023-02-06T05:23:53.416Z,143173.00
2023-02-06T05:26:20.711Z,143150.09
2023-02-06T05:28:47.952Z,143311.69
2023-02-06T05:31:19.565Z,143279.13
2023-02-06T05:33:49.421Z,143275.50
2023-02-06T05:36:18.273Z,143267.06
2023-02-06T05:38:45.542Z,143253.78
2023-02-06T05:41:12.724Z,143244.16
2023-02-06T05:43:39.835Z,143226.06
2023-02-06T05:46:06.967Z,143167.00
2023-02-06T05:48:34.900Z,143229.69
2023-02-06T05:51:02.144Z,143235.69
2023-02-06T05:53:29.289Z,143255.03
2023-02-06T05:55:57.238Z,143268.28
2023-02-06T05:58:24.673Z,143270.69
2023-02-06T06:00:51.761Z,143275.50
2023-02-06T06:03:19.099Z,143152.53
2023-02-06T06:05:46.454Z,143063.34
2023-02-06T06:08:13.513Z,143217.63
2023-02-06T06:10:40.745Z,143186.28
2023-02-06T06:13:08.398Z,143140.47
2023-02-06T06:15:35.736Z,143221.25
2023-02-06T06:18:03.507Z,143051.31
2023-02-06T06:20:30.584Z,143206.78
2023-02-06T06:22:57.591Z,143193.53
2023-02-06T06:25:24.625Z,143186.28
2023-02-06T06:27:51.648Z,143022.38
2023-02-06T06:30:18.781Z,143045.25
2023-02-06T06:32:45.786Z,143179.06
2023-02-06T06:35:12.826Z,143191.09
2023-02-06T06:37:40.009Z,143147.72
2023-02-06T06:40:07.412Z,143189.88
2023-02-06T06:42:34.490Z,143186.28
2023-02-06T06:45:01.633Z,143007.94
2023-02-06T06:47:28.706Z,143153.72
2023-02-06T06:49:55.730Z,143191.09
2023-02-06T06:52:25.661Z,143188.69
2023-02-06T06:54:53.625Z,143174.25
2023-02-06T06:57:22.064Z,143006.75
2023-02-06T06:59:49.465Z,143045.25
2023-02-06T07:02:17.150Z,142988.66
2023-02-06T07:04:44.186Z,143188.69
2023-02-06T07:07:11.203Z,143220.03
2023-02-06T07:09:38.275Z,143229.69
2023-02-06T07:12:05.795Z,143230.88
2023-02-06T07:14:33.033Z,143075.41
2023-02-06T07:17:01.573Z,143244.16
2023-02-06T07:19:28.572Z,143251.41
2023-02-06T07:21:55.561Z,143244.16
2023-02-06T07:24:22.637Z,143245.34
2023-02-06T07:26:49.785Z,143234.50
2023-02-06T07:29:16.898Z,143222.44
2023-02-06T07:31:44.075Z,143142.91
2023-02-06T07:34:11.202Z,143212.78
2023-02-06T07:36:38.244Z,143080.22
2023-02-06T07:39:05.289Z,143258.59
2023-02-06T07:41:32.374Z,143285.13
2023-02-06T07:43:59.763Z,143318.94
2023-02-06T07:46:26.844Z,143322.50
2023-02-06T07:48:53.901Z,143275.50
2023-02-06T07:51:20.940Z,143362.31
2023-02-06T07:53:48.436Z,143379.22
2023-02-06T07:56:18.372Z,143422.66
2023-02-06T07:58:47.243Z,143425.06
2023-02-06T08:01:14.314Z,143468.50
2023-02-06T08:03:41.476Z,143474.53
2023-02-06T08:06:14.718Z,143487.81
2023-02-06T08:08:43.148Z,143492.63
2023-02-06T08:11:16.155Z,143518.00
2023-02-06T08:13:43.780Z,143464.88
2023-02-06T08:16:20.166Z,143552.97
2023-02-06T08:18:47.539Z,143579.53
2023-02-06T08:21:18.070Z,143499.91
2023-02-06T08:23:45.472Z,143606.09
2023-02-06T08:26:18.578Z,143635.09
2023-02-06T08:28:47.873Z,143484.19
2023-02-06T08:31:26.718Z,143654.41
2023-02-06T08:33:54.861Z,143679.72
2023-02-06T08:36:23.592Z,143668.88
2023-02-06T08:38:52.376Z,143661.63
2023-02-06T08:41:21.618Z,143713.56
2023-02-06T08:43:50.455Z,143738.91
2023-02-06T08:46:18.861Z,143743.78
2023-02-06T08:48:46.254Z,143734.06
2023-02-06T08:51:13.740Z,143801.72
2023-02-06T08:53:41.073Z,143811.38
2023-02-06T08:56:12.311Z,143766.72
2023-02-06T08:58:40.449Z,143854.88
2023-02-06T09:01:09.145Z,143830.72
2023-02-06T09:03:36.672Z,143754.63
2023-02-06T09:06:09.722Z,143903.22
2023-02-06T09:08:38.724Z,143880.28
2023-02-06T09:11:06.722Z,143966.06
2023-02-06T09:13:34.004Z,143883.84
2023-02-06T09:16:01.612Z,144044.63
2023-02-06T09:18:28.634Z,144068.78
2023-02-06T09:21:11.967Z,144109.91
2023-02-06T09:23:46.822Z,144103.88
2023-02-06T09:26:20.575Z,144211.53
2023-02-06T09:28:47.723Z,144244.19
2023-02-06T09:31:14.891Z,144250.22
2023-02-06T09:33:41.966Z,144324.06
2023-02-06T09:36:11.891Z,144350.63
2023-02-06T09:38:41.251Z,144360.34
2023-02-06T09:41:31.575Z,144494.69
2023-02-06T09:44:04.922Z,144508.00
2023-02-06T09:46:35.177Z,144464.41
2023-02-06T09:49:11.433Z,144524.97
2023-02-06T09:52:18.087Z,144613.34
2023-02-06T09:55:00.315Z,144595.19
2023-02-06T09:57:46.366Z,144667.88
2023-02-06T10:00:43.190Z,144672.75
2023-02-06T10:03:41.492Z,144638.81
2023-02-06T10:06:20.014Z,144568.53
2023-02-06T10:09:15.562Z,144595.19
2023-02-06T10:11:49.273Z,144617.00
2023-02-06T10:14:32.327Z,144652.13
2023-02-06T10:17:04.742Z,144680.03
2023-02-06T10:19:50.404Z,144757.56
2023-02-06T10:22:24.292Z,144704.25
2023-02-06T10:25:06.033Z,144753.94
2023-02-06T10:27:35.296Z,144738.19
2023-02-06T10:30:02.421Z,144687.28
2023-02-06T10:32:48.628Z,144431.72
2023-02-06T10:35:53.106Z,144641.22
2023-02-06T10:38:29.375Z,144608.50
2023-02-06T10:41:13.469Z,144619.44
2023-02-06T10:43:53.334Z,144619.44
2023-02-06T10:46:41.414Z,144604.88
2023-02-06T10:49:14.193Z,144612.16
2023-02-06T10:51:45.370Z,144575.81
2023-02-06T10:54:23.236Z,144476.53
2023-02-06T10:56:52.500Z,144505.59
2023-02-06T10:59:37.625Z,144600.03
2023-02-06T11:02:07.834Z,144590.34
2023-02-06T11:04:51.234Z,144595.19
2023-02-06T11:07:26.133Z,144561.31
2023-02-06T11:09:54.137Z,144564.94
2023-02-06T11:12:31.261Z,144649.69
2023-02-06T11:15:04.785Z,144700.59
2023-02-06T11:17:32.147Z,144723.63
2023-02-06T11:20:15.190Z,144792.72
2023-02-06T11:22:52.357Z,144759.97
2023-02-06T11:25:22.878Z,144757.56
2023-02-06T11:27:50.289Z,144740.59
2023-02-06T11:30:40.144Z,144781.78
2023-02-06T11:33:18.779Z,144796.31
2023-02-06T11:36:01.374Z,144624.28
2023-02-06T11:38:30.516Z,144956.38
2023-02-06T11:41:16.845Z,144917.56
2023-02-06T11:43:43.766Z,144944.22
2023-02-06T11:46:19.475Z,144939.38
2023-02-06T11:48:55.523Z,144889.69
2023-02-06T11:51:24.240Z,144732.13
2023-02-06T11:54:02.730Z,144780.59
2023-02-06T11:56:31.575Z,144869.06
2023-02-06T11:59:07.305Z,144875.16
2023-02-06T12:01:42.907Z,144660.63
2023-02-06T12:04:23.904Z,144853.31
2023-02-06T12:07:16.753Z,144852.13
2023-02-06T12:09:44.003Z,144894.53
2023-02-06T12:12:32.576Z,144901.81
2023-02-06T12:15:45.610Z,144820.59
2023-02-06T12:18:20.112Z,144887.22
2023-02-06T12:20:52.435Z,144876.34
2023-02-06T12:23:49.701Z,144987.91
2023-02-06T12:26:20.765Z,145036.38
2023-02-06T12:29:11.802Z,145002.44
2023-02-06T12:31:42.901Z,144869.06
2023-02-06T12:34:20.107Z,144873.94
2023-02-06T12:36:59.994Z,144915.16
2023-02-06T12:39:32.626Z,144818.16
2023-02-06T12:42:05.795Z,144899.38
2023-02-06T12:44:47.719Z,144895.72
2023-02-06T12:47:23.605Z,144905.41
2023-02-06T12:50:13.533Z,144864.22
2023-02-06T12:52:47.634Z,144841.19
2023-02-06T12:55:23.601Z,144827.84
2023-02-06T12:57:51.666Z,144692.16
2023-02-06T13:00:44.557Z,144839.97
2023-02-06T13:03:27.320Z,144895.72
2023-02-06T13:05:54.367Z,144835.13
2023-02-06T13:08:30.783Z,144842.41
2023-02-06T13:11:16.901Z,144769.72
2023-02-06T13:13:44.315Z,144753.94
2023-02-06T13:16:11.521Z,144750.28
2023-02-06T13:18:41.661Z,144759.97
2023-02-06T13:21:32.228Z,144675.19
2023-02-06T13:24:02.350Z,144721.22
2023-02-06T13:26:52.403Z,144665.47
2023-02-06T13:29:30.365Z,144738.19
2023-02-06T13:32:15.581Z,144733.34
2023-02-06T13:34:44.071Z,144713.94
2023-02-06T13:37:34.885Z,144729.72
2023-02-06T13:40:24.545Z,144741.81
2023-02-06T13:42:53.970Z,144747.88
2023-02-06T13:45:28.925Z,144783.03
2023-02-06T13:48:05.245Z,144716.38
2023-02-06T13:51:21.791Z,144738.19
2023-02-06T13:54:28.721Z,144640.00
2023-02-06T13:57:15.891Z,144728.50
2023-02-06T13:59:42.978Z,144704.25
2023-02-06T14:02:30.042Z,144607.31
2023-02-06T14:04:58.397Z,144581.88
2023-02-06T14:07:46.973Z,144699.41
2023-02-06T14:10:51.234Z,144713.94
2023-02-06T14:13:18.203Z,144692.16
2023-02-06T14:16:10.293Z,144721.22
2023-02-06T14:18:49.291Z,144720.03
2023-02-06T14:21:44.027Z,144747.88
2023-02-06T14:24:33.082Z,144721.22
2023-02-06T14:27:18.731Z,144728.50
2023-02-06T14:30:03.815Z,144744.25
2023-02-06T14:32:57.121Z,144766.06
2023-02-06T14:35:41.689Z,144642.44
2023-02-06T14:38:43.698Z,144713.94
2023-02-06T14:41:11.006Z,144642.44
2023-02-06T14:43:42.950Z,144660.63
2023-02-06T14:46:14.788Z,144663.03
2023-02-06T14:48:54.931Z,144625.47
2023-02-06T14:51:26.363Z,144675.19
2023-02-06T14:54:00.227Z,144617.00
2023-02-06T14:56:33.237Z,144518.88
2023-02-06T14:59:12.311Z,144607.31
2023-02-06T15:01:40.405Z,144575.81
2023-02-06T15:04:14.067Z,144580.66
2023-02-06T15:06:51.209Z,144476.53
2023-02-06T15:09:30.428Z,144575.81
2023-02-06T15:12:01.175Z,144481.38
2023-02-06T15:14:33.873Z,144597.63
2023-02-06T15:17:02.570Z,144584.31
2023-02-06T15:19:35.562Z,144546.78
2023-02-06T15:22:11.363Z,144517.69
2023-02-06T15:24:56.744Z,144522.53
2023-02-06T15:27:35.682Z,144469.28
2023-02-06T15:30:18.404Z,144500.72
2023-02-06T15:32:48.297Z,144486.22
2023-02-06T15:35:38.585Z,144401.50
2023-02-06T15:38:14.614Z,144373.63
2023-02-06T15:40:45.765Z,144403.91
2023-02-06T15:43:22.473Z,144388.19
2023-02-06T15:45:52.216Z,144386.94
2023-02-06T15:48:32.117Z,144370.03
2023-02-06T15:51:08.279Z,144333.72
2023-02-06T15:53:40.515Z,144332.47
2023-02-06T15:56:19.272Z,144246.56
2023-02-06T15:58:49.359Z,144117.19
2023-02-06T16:01:20.840Z,144250.22
2023-02-06T16:03:56.306Z,144307.09
2023-02-06T16:06:23.437Z,144278.03
2023-02-06T16:08:55.610Z,144238.16
2023-02-06T16:11:47.883Z,144148.63
2023-02-06T16:14:29.186Z,144241.72
2023-02-06T16:17:04.165Z,144236.91
2023-02-06T16:19:47.571Z,144203.06
2023-02-06T16:22:21.751Z,144190.94
2023-02-06T16:24:51.830Z,144169.16
2023-02-06T16:27:25.791Z,144153.47
2023-02-06T16:29:56.082Z,144097.84
2023-02-06T16:32:28.640Z,144091.78
2023-02-06T16:34:56.184Z,144096.59
2023-02-06T16:37:26.134Z,144065.16
2023-02-06T16:39:53.934Z,144061.56
2023-02-06T16:42:24.714Z,144043.44
2023-02-06T16:44:58.244Z,144019.22
2023-02-06T16:47:25.546Z,143938.25
2023-02-06T16:49:52.803Z,143900.78
2023-02-06T16:52:29.192Z,143955.16
2023-02-06T16:55:00.704Z,143934.66
2023-02-06T16:57:35.214Z,143937.03
2023-02-06T17:00:05.029Z,143925.00
2023-02-06T17:02:32.072Z,143932.22
2023-02-06T17:04:59.205Z,143894.75
2023-02-06T17:07:30.615Z,143886.31
2023-02-06T17:09:58.663Z,143847.63
2023-02-06T17:12:25.762Z,143839.19
2023-02-06T17:14:52.884Z,143835.56
2023-02-06T17:17:22.302Z,143736.50
2023-02-06T17:19:51.786Z,143741.34
2023-02-06T17:22:19.098Z,143823.47
2023-02-06T17:24:46.475Z,143854.88
2023-02-06T17:27:20.861Z,143799.31
2023-02-06T17:29:48.826Z,143787.22
2023-02-06T17:32:17.984Z,143775.13
2023-02-06T17:34:45.088Z,143807.78
2023-02-06T17:37:20.386Z,143750.97
2023-02-06T17:39:51.765Z,143715.94
2023-02-06T17:42:21.671Z,143581.97
2023-02-06T17:44:48.814Z,143693.00
2023-02-06T17:47:15.850Z,143682.16
2023-02-06T17:49:42.888Z,143610.91
2023-02-06T17:52:09.879Z,143639.91
2023-02-06T17:54:37.001Z,143658.03
2023-02-06T17:57:04.083Z,143645.94
2023-02-06T17:59:31.098Z,143673.69
2023-02-06T18:01:59.349Z,143630.22
2023-02-06T18:04:27.158Z,143632.66
2023-02-06T18:06:54.290Z,143644.75
2023-02-06T18:09:21.361Z,143656.78
2023-02-06T18:11:48.403Z,143631.47
2023-02-06T18:14:15.598Z,143618.19
2023-02-06T18:16:42.876Z,143618.19
2023-02-06T18:19:10.565Z,143606.09
2023-02-06T18:21:37.596Z,143490.25
2023-02-06T18:24:05.740Z,143589.19
2023-02-06T18:26:33.212Z,143451.63
2023-02-06T18:29:04.400Z,143478.16
2023-02-06T18:31:33.738Z,143560.22
2023-02-06T18:34:03.368Z,143563.84
2023-02-06T18:36:30.423Z,143531.28
2023-02-06T18:38:57.586Z,143505.91
2023-02-06T18:41:43.390Z,143495.06
2023-02-06T18:44:12.053Z,143447.97
2023-02-06T18:46:40.126Z,143434.72
2023-02-06T18:49:07.460Z,143432.31
2023-02-06T18:51:34.607Z,143435.94
2023-02-06T18:54:01.934Z,143419.03
2023-02-06T18:56:29.094Z,143404.56
2023-02-06T18:58:56.290Z,143392.50
2023-02-06T19:01:24.899Z,143429.88
2023-02-06T19:03:53.347Z,143452.81
2023-02-06T19:06:23.919Z,143458.88
2023-02-06T19:08:50.978Z,143437.13
2023-02-06T19:11:18.114Z,143437.13
2023-02-06T19:13:45.290Z,143446.78
2023-02-06T19:16:15.632Z,143445.59
2023-02-06T19:18:45.873Z,143285.13
2023-02-06T19:21:16.180Z,143382.84
2023-02-06T19:23:44.952Z,143379.22
2023-02-06T19:26:14.966Z,143420.25
2023-02-06T19:28:43.219Z,143410.59
2023-02-06T19:31:12.930Z,143311.69
2023-02-06T19:33:41.283Z,143405.78
2023-02-06T19:36:10.460Z,143391.31
2023-02-06T19:38:37.894Z,143344.22
2023-02-06T19:41:12.489Z,143328.56
2023-02-06T19:43:40.107Z,143287.56
2023-02-06T19:46:11.720Z,143296.03
2023-02-06T19:48:42.276Z,143282.75
2023-02-06T19:51:15.530Z,143241.75
2023-02-06T19:53:46.288Z,143299.59
2023-02-06T19:56:17.853Z,143287.56
2023-02-06T19:58:45.017Z,143298.41
2023-02-06T20:01:15.215Z,143296.03
2023-02-06T20:03:43.272Z,143318.94
2023-02-06T20:06:12.908Z,143316.50
2023-02-06T20:08:44.775Z,143297.22
2023-02-06T20:11:14.950Z,143282.75
2023-02-06T20:13:42.782Z,143304.41
2023-02-06T20:16:21.224Z,143279.13
2023-02-06T20:18:49.345Z,143345.47
2023-02-06T20:21:28.052Z,143367.16
2023-02-06T20:23:58.161Z,143299.59
2023-02-06T20:26:27.678Z,143359.94
2023-02-06T20:28:55.710Z,143210.41
2023-02-06T20:31:23.280Z,143396.13
2023-02-06T20:33:50.571Z,143422.66
2023-02-06T20:36:23.017Z,143451.63
2023-02-06T20:38:50.740Z,143483.00
2023-02-06T20:41:19.077Z,143449.19
2023-02-06T20:43:48.085Z,143449.19
2023-02-06T20:46:18.256Z,143525.22
2023-02-06T20:48:47.457Z,143466.09
2023-02-06T20:51:14.726Z,143534.84
2023-02-06T20:53:41.816Z,143466.09
2023-02-06T20:56:12.063Z,143478.16
2023-02-06T20:58:39.308Z,143446.78
2023-02-06T21:01:24.681Z,143271.88
2023-02-06T21:03:55.703Z,143414.22
2023-02-06T21:06:22.983Z,143381.66
2023-02-06T21:08:52.662Z,143456.44
2023-02-06T21:11:19.885Z,143250.19
2023-02-06T21:13:46.891Z,143299.59
2023-02-06T21:16:13.963Z,143416.59
2023-02-06T21:18:42.484Z,143408.16
2023-02-06T21:21:13.728Z,143410.59
2023-02-06T21:23:42.760Z,143387.66
2023-02-06T21:26:12.241Z,143368.38
2023-02-06T21:28:40.823Z,143355.13
2023-02-06T21:31:14.390Z,143338.22
2023-02-06T21:33:41.450Z,143358.69
2023-02-06T21:36:09.012Z,143380.41
2023-02-06T21:38:36.577Z,143297.22
2023-02-06T21:41:05.955Z,143375.59
2023-02-06T21:43:33.320Z,143379.22
2023-02-06T21:46:00.425Z,143398.50
2023-02-06T21:48:27.822Z,143287.56
2023-02-06T21:50:54.868Z,143427.50
2023-02-06T21:53:21.863Z,143406.97
2023-02-06T21:55:48.874Z,143344.22
2023-02-06T21:58:16.344Z,143456.44
2023-02-06T22:00:45.427Z,143454.03
2023-02-06T22:03:13.171Z,143303.22
2023-02-06T22:05:40.358Z,143461.25
2023-02-06T22:08:07.534Z,143402.13
2023-02-06T22:10:36.484Z,143433.50
2023-02-06T22:13:05.348Z,143458.88
2023-02-06T22:15:33.301Z,143458.88
2023-02-06T22:18:00.594Z,143475.72
2023-02-06T22:20:28.080Z,143483.00
2023-02-06T22:22:55.206Z,143335.78
2023-02-06T22:25:22.549Z,143328.56
2023-02-06T22:27:49.798Z,143428.69
2023-02-06T22:30:16.994Z,143511.94
2023-02-06T22:32:44.089Z,143387.66
2023-02-06T22:35:11.249Z,143513.16
2023-02-06T22:37:38.417Z,143524.00
2023-02-06T22:40:05.822Z,143515.56
2023-02-06T22:42:34.708Z,143528.84
2023-02-06T22:45:02.066Z,143510.72
2023-02-06T22:47:29.069Z,143515.56
2023-02-06T22:49:56.092Z,143527.66
2023-02-06T22:52:41.916Z,143499.91
2023-02-06T22:55:09.440Z,143431.06
2023-02-06T22:57:37.213Z,143540.94
2023-02-06T23:00:09.241Z,143551.75
2023-02-06T23:02:38.249Z,143567.47
2023-02-06T23:05:05.896Z,143532.47
2023-02-06T23:07:32.982Z,143574.69
2023-02-06T23:09:59.991Z,143589.19
2023-02-06T23:12:27.037Z,143575.91
2023-02-06T23:14:54.166Z,143608.53
2023-02-06T23:17:21.223Z,143598.88
2023-02-06T23:19:48.541Z,143463.69
2023-02-06T23:22:15.706Z,143589.19
2023-02-06T23:24:42.714Z,143586.78
2023-02-06T23:27:09.878Z,143579.53
2023-02-06T23:29:36.962Z,143514.38
2023-02-06T23:32:04.696Z,143511.94
2023-02-06T23:34:31.765Z,143514.38
2023-02-06T23:36:58.832Z,143480.56
2023-02-06T23:39:25.960Z,143298.41
2023-02-06T23:41:53.077Z,143478.16
2023-02-06T23:44:20.166Z,143381.66
2023-02-06T23:46:47.805Z,143381.66
2023-02-06T23:49:14.884Z,143451.63
2023-02-06T23:51:41.932Z,143458.88
2023-02-06T23:54:09.335Z,143462.44
2023-02-06T23:56:37.235Z,143487.81
2023-02-06T23:59:05.535Z,143495.06
